createdAt,value
2022-08-19T03:36:49.927Z,99855.72
2022-08-19T03:39:53.162Z,99859.91
2022-08-19T03:42:55.737Z,99862.47
2022-08-19T03:46:05.522Z,99863.47
2022-08-19T03:49:08.504Z,99872.00
2022-08-19T03:52:11.425Z,99865.59
2022-08-19T03:55:15.088Z,99862.91
2022-08-19T03:58:18.033Z,99868.66
2022-08-19T04:01:34.823Z,99868.19
2022-08-19T04:04:40.704Z,99880.66
2022-08-19T04:07:43.255Z,99871.28
2022-08-19T04:10:45.991Z,99875.44
2022-08-19T04:13:49.434Z,99881.66
2022-08-19T04:16:53.224Z,99891.44
2022-08-19T04:19:56.193Z,99891.81
2022-08-19T04:22:59.054Z,99890.62
2022-08-19T04:26:01.631Z,99909.97
2022-08-19T04:29:12.562Z,99905.25
2022-08-19T04:32:16.298Z,99901.25
2022-08-19T04:35:22.048Z,99900.25
2022-08-19T04:38:27.560Z,99895.22
2022-08-19T04:41:48.989Z,99898.91
2022-08-19T04:44:51.730Z,99906.12
2022-08-19T04:48:27.163Z,99911.06
2022-08-19T04:51:22.813Z,99907.22
2022-08-19T04:54:37.476Z,99909.41
2022-08-19T04:57:41.849Z,99902.31
2022-08-19T05:00:44.970Z,99899.94
2022-08-19T05:03:48.347Z,99897.25
2022-08-19T05:06:52.580Z,99903.13
2022-08-19T05:09:59.653Z,99909.53
2022-08-19T05:13:02.490Z,99910.34
2022-08-19T05:16:05.658Z,99904.63
2022-08-19T05:19:27.328Z,99913.88
2022-08-19T05:22:33.907Z,99908.78
2022-08-19T05:25:41.088Z,99912.25
2022-08-19T05:28:44.330Z,99910.28
2022-08-19T05:31:50.354Z,99913.75
2022-08-19T05:34:52.903Z,99916.25
2022-08-19T05:37:58.932Z,99912.44
2022-08-19T05:41:02.228Z,99915.38
2022-08-19T05:44:10.258Z,99913.06
2022-08-19T05:47:15.844Z,99911.31
2022-08-19T05:50:18.965Z,99914.44
2022-08-19T05:53:21.560Z,99916.13
2022-08-19T05:56:24.997Z,99928.97
2022-08-19T05:59:27.596Z,99922.78
2022-08-19T06:02:31.828Z,99912.94
2022-08-19T06:05:50.193Z,99922.44
2022-08-19T06:08:54.908Z,99921.78
2022-08-19T06:12:00.787Z,99930.63
2022-08-19T06:15:07.625Z,99925.13
2022-08-19T06:18:10.419Z,99920.16
2022-08-19T06:21:12.792Z,99922.22
2022-08-19T06:24:18.197Z,99927.13
2022-08-19T06:27:21.549Z,99921.47
2022-08-19T06:30:24.412Z,99933.47
2022-08-19T06:33:27.040Z,99923.72
2022-08-19T06:36:43.783Z,99901.34
2022-08-19T06:39:46.417Z,99901.91
2022-08-19T06:42:54.306Z,99904.72
2022-08-19T06:45:57.932Z,99911.53
2022-08-19T06:49:02.114Z,99908.75
2022-08-19T06:52:06.452Z,99912.19
2022-08-19T06:55:09.419Z,99911.84
2022-08-19T06:58:12.033Z,99913.81
2022-08-19T07:01:14.952Z,99916.72
2022-08-19T07:04:21.088Z,99906.31
2022-08-19T07:07:23.947Z,99917.37
2022-08-19T07:10:26.647Z,99919.31
2022-08-19T07:13:29.416Z,99924.31
2022-08-19T07:16:32.048Z,99926.69
2022-08-19T07:19:36.724Z,99937.34
2022-08-19T07:22:39.744Z,99946.75
2022-08-19T07:25:44.275Z,99947.37
2022-08-19T07:28:51.564Z,99941.31
2022-08-19T07:31:57.440Z,99942.16
2022-08-19T07:35:04.329Z,99938.38
2022-08-19T07:38:07.296Z,99932.34
2022-08-19T07:41:12.785Z,99932.34
2022-08-19T07:44:16.780Z,99930.47
2022-08-19T07:47:49.136Z,99926.09
2022-08-19T07:50:42.463Z,99919.19
2022-08-19T07:53:46.356Z,99926.03
2022-08-19T07:56:51.071Z,99919.53
2022-08-19T07:59:55.408Z,99925.50
2022-08-19T08:02:58.207Z,99919.75
2022-08-19T08:06:19.751Z,99928.44
2022-08-19T08:09:29.619Z,99933.78
2022-08-19T08:12:42.232Z,99927.50
2022-08-19T08:15:45.691Z,99916.50
2022-08-19T08:18:50.541Z,99916.47
2022-08-19T08:21:56.945Z,99924.31
2022-08-19T08:25:04.204Z,99926.81
2022-08-19T08:28:11.368Z,99933.19
2022-08-19T08:31:21.105Z,99932.72
2022-08-19T08:34:23.748Z,99937.19
2022-08-19T08:37:26.552Z,99931.66
2022-08-19T08:40:50.937Z,99924.37
2022-08-19T08:43:56.378Z,99918.56
2022-08-19T08:47:03.606Z,99924.44
2022-08-19T08:50:13.375Z,99922.09
2022-08-19T08:53:29.818Z,99920.47
2022-08-19T08:56:35.414Z,99915.97
2022-08-19T08:59:42.640Z,99898.97
2022-08-19T09:02:50.387Z,99890.78
2022-08-19T09:06:04.355Z,99896.06
2022-08-19T09:09:25.769Z,99900.34
2022-08-19T09:12:50.975Z,99904.72
2022-08-19T09:16:02.455Z,99899.84
2022-08-19T09:19:10.578Z,99906.84
2022-08-19T09:22:13.360Z,99900.31
2022-08-19T09:25:29.283Z,99904.13
2022-08-19T09:28:32.465Z,99896.38
2022-08-19T09:31:35.228Z,99890.41
2022-08-19T09:34:44.032Z,99888.34
2022-08-19T09:37:46.984Z,99887.84
2022-08-19T09:40:51.152Z,99879.06
2022-08-19T09:43:56.950Z,99876.12
2022-08-19T09:47:01.256Z,99874.75
2022-08-19T09:50:06.591Z,99874.75
2022-08-19T09:53:09.387Z,99862.56
2022-08-19T09:56:12.775Z,99857.69
2022-08-19T09:59:15.663Z,99858.19
2022-08-19T10:02:22.141Z,99850.78
2022-08-19T10:05:43.920Z,99838.19
2022-08-19T10:08:50.219Z,99845.78
2022-08-19T10:11:54.908Z,99837.38
2022-08-19T10:14:57.808Z,99838.41
2022-08-19T10:18:00.838Z,99838.59
2022-08-19T10:21:14.975Z,99843.78
2022-08-19T10:24:18.572Z,99836.19
2022-08-19T10:27:21.628Z,99837.88
2022-08-19T10:30:24.960Z,99831.59
2022-08-19T10:33:52.935Z,99833.03
2022-08-19T10:36:56.682Z,99828.31
2022-08-19T10:40:08.822Z,99834.25
2022-08-19T10:43:12.213Z,99829.38
2022-08-19T10:46:16.699Z,99825.53
2022-08-19T10:49:20.262Z,99825.94
2022-08-19T10:52:35.089Z,99833.87
2022-08-19T10:56:00.360Z,99832.25
2022-08-19T10:59:04.208Z,99827.16
2022-08-19T11:02:13.911Z,99828.66
2022-08-19T11:05:18.083Z,99831.28
2022-08-19T11:08:23.018Z,99835.25
2022-08-19T11:11:28.921Z,99834.69
2022-08-19T11:14:34.191Z,99823.00
2022-08-19T11:17:37.056Z,99816.25
2022-08-19T11:20:40.486Z,99833.72
2022-08-19T11:23:43.111Z,99829.34
2022-08-19T11:26:46.004Z,99820.19
2022-08-19T11:29:48.818Z,99829.00
2022-08-19T11:32:51.752Z,99822.41
2022-08-19T11:35:55.336Z,99820.81
2022-08-19T11:38:58.257Z,99824.41
2022-08-19T11:42:03.696Z,99821.38
2022-08-19T11:45:07.064Z,99835.97
2022-08-19T11:48:09.545Z,99825.00
2022-08-19T11:51:15.975Z,99805.97
2022-08-19T11:54:18.811Z,99811.16
2022-08-19T11:57:21.738Z,99822.94
2022-08-19T12:00:24.482Z,99801.91
2022-08-19T12:03:28.599Z,99800.28
2022-08-19T12:06:35.012Z,99795.31
2022-08-19T12:09:42.726Z,99793.75
2022-08-19T12:12:46.669Z,99797.41
2022-08-19T12:15:57.726Z,99791.66
2022-08-19T12:19:04.941Z,99780.37
2022-08-19T12:22:08.639Z,99788.94
2022-08-19T12:25:12.950Z,99774.19
2022-08-19T12:28:16.503Z,99786.69
2022-08-19T12:31:20.631Z,99786.97
2022-08-19T12:34:23.440Z,99780.03
2022-08-19T12:37:26.078Z,99787.72
2022-08-19T12:40:29.048Z,99799.47
2022-08-19T12:43:31.618Z,99786.00
2022-08-19T12:46:34.544Z,99781.88
2022-08-19T12:49:53.818Z,99777.63
2022-08-19T12:52:59.118Z,99773.28
2022-08-19T12:56:01.871Z,99759.41
2022-08-19T12:59:05.804Z,99753.66
2022-08-19T13:02:09.200Z,99749.66
2022-08-19T13:05:15.107Z,99749.97
2022-08-19T13:08:18.173Z,99745.50
2022-08-19T13:11:24.781Z,99748.28
2022-08-19T13:14:27.377Z,99737.50
2022-08-19T13:17:30.235Z,99739.69
2022-08-19T13:20:33.092Z,99742.47
2022-08-19T13:23:36.764Z,99748.41
2022-08-19T13:26:39.231Z,99739.66
2022-08-19T13:30:01.887Z,99730.72
2022-08-19T13:33:17.312Z,99736.31
2022-08-19T13:36:20.292Z,99726.97
2022-08-19T13:39:24.123Z,99728.59
2022-08-19T13:42:27.798Z,99723.03
2022-08-19T13:45:35.012Z,99722.41
2022-08-19T13:48:37.888Z,99717.13
2022-08-19T13:51:41.136Z,99707.88
2022-08-19T13:54:45.218Z,99716.81
2022-08-19T13:57:52.225Z,99706.78
2022-08-19T14:00:55.347Z,99686.16
2022-08-19T14:03:58.391Z,99678.16
2022-08-19T14:07:01.065Z,99679.75
2022-08-19T14:10:07.062Z,99674.25
2022-08-19T14:13:10.000Z,99670.38
2022-08-19T14:16:14.664Z,99698.03
2022-08-19T14:19:17.390Z,99703.16
2022-08-19T14:22:22.373Z,99703.44
2022-08-19T14:25:28.394Z,99702.63
2022-08-19T14:28:31.406Z,99705.81
2022-08-19T14:31:33.981Z,99711.75
2022-08-19T14:34:38.298Z,99705.13
2022-08-19T14:37:45.678Z,99689.03
2022-08-19T14:40:49.921Z,99715.97
2022-08-19T14:43:54.400Z,99713.25
2022-08-19T14:46:57.245Z,99698.69
2022-08-19T14:50:00.206Z,99704.97
2022-08-19T14:53:12.307Z,99705.09
2022-08-19T14:56:18.863Z,99710.06
2022-08-19T14:59:21.763Z,99698.44
2022-08-19T15:02:34.554Z,99727.59
2022-08-19T15:05:38.474Z,99721.22
2022-08-19T15:08:44.048Z,99717.28
2022-08-19T15:11:47.237Z,99728.50
